Observation data for Palo Duro Reservoir 1NW on 02/22/2019      Previous  Date  Next       Current Mesonet Observations  Soil Data  Daily Summary Page  Observations in Plain Language
KPD4 221903Z 15009KT 05/03 A2991 RMK A01 T00480027  RH  086%=      5-min Rain = 0
KPD4 221904Z 15011KT 05/03 A2991 RMK A01 T00470026  RH  086%=      5-min Rain = 0
KPD4 221905Z 15009KT 05/03 A2991 RMK A01 T00460025  RH  086%=      5-min Rain = 0
KPD4 221906Z 15008KT 05/03 A2991 RMK A01 T00460026  RH  087%=      5-min Rain = 0
KPD4 221907Z 15008KT 05/03 A2991 RMK A01 T00480028  RH  087%=      5-min Rain = 0
KPD4 221908Z 14012KT 05/03 A2991 RMK A01 T00490028  RH  086%=      5-min Rain = 0
KPD4 221909Z 14010KT 05/03 A2991 RMK A01 T00490026  RH  085%=      5-min Rain = 0.01
KPD4 221910Z 13011KT 05/03 A2991 RMK A01 T00480025  RH  086%=      5-min Rain = 0
KPD4 221911Z 13012KT 05/03 A2991 RMK A01 T00480025  RH  085%=      5-min Rain = 0
KPD4 221912Z 13012KT 05/03 A2991 RMK A01 T00480026  RH  086%=      5-min Rain = 0
KPD4 221913Z 13012KT 05/03 A2991 RMK A01 T00470025  RH  085%=      5-min Rain = 0
KPD4 221914Z 13010KT 05/03 A2991 RMK A01 T00470025  RH  086%=      5-min Rain = 0
KPD4 221915Z 14010KT 05/03 A2991 RMK A01 T00470025  RH  086%=      5-min Rain = 0
KPD4 221916Z 15010KT 05/03 A2991 RMK A01 T00470026  RH  086%=      5-min Rain = 0
KPD4 221917Z 14012KT 05/03 A299 RMK A01 T00470025  RH  086%=      5-min Rain = 0
KPD4 221918Z 14012KT 05/03 A299 RMK A01 T00480025  RH  085%=      5-min Rain = 0
KPD4 221919Z 15012KT 05/03 A299 RMK A01 T00480025  RH  085%=      5-min Rain = 0
KPD4 221920Z 15011KT 05/03 A299 RMK A01 T00480026  RH  085%=      5-min Rain = 0
KPD4 221921Z 16010KT 05/03 A299 RMK A01 T00490025  RH  085%=      5-min Rain = 0
KPD4 221922Z 16011KT 05/03 A299 RMK A01 T00490026  RH  085%=      5-min Rain = 0
KPD4 221923Z 15010KT 05/03 A299 RMK A01 T00500026  RH  085%=      5-min Rain = 0
KPD4 221924Z 15009KT 05/03 A299 RMK A01 T00500025  RH  084%=      5-min Rain = 0
KPD4 221925Z 15010KT 05/03 A299 RMK A01 T00500027  RH  085%=      5-min Rain = 0
KPD4 221926Z 15013KT 05/03 A2989 RMK A01 T00510027  RH  084%=      5-min Rain = 0
KPD4 221927Z 14010KT 05/03 A2989 RMK A01 T00510026  RH  084%=      5-min Rain = 0
KPD4 221928Z 13011KT 05/03 A2989 RMK A01 T00510026  RH  084%=      5-min Rain = 0
KPD4 221929Z 14011KT 05/03 A2989 RMK A01 T00520027  RH  084%=      5-min Rain = 0
KPD4 221930Z 14012KT 05/03 A2989 RMK A01 T00530027  RH  083%=      5-min Rain = 0
KPD4 221931Z 14009KT 05/03 A2989 RMK A01 T00510026  RH  084%=      5-min Rain = 0
KPD4 221932Z 14011KT 05/03 A2989 RMK A01 T00520028  RH  085%=      5-min Rain = 0
KPD4 221933Z 15011KT 05/03 A2989 RMK A01 T00530028  RH  084%=      5-min Rain = 0
KPD4 221934Z 15010KT 05/03 A2989 RMK A01 T00530026  RH  083%=      5-min Rain = 0
KPD4 221935Z 14008KT 05/03 A2989 RMK A01 T00520026  RH  084%=      5-min Rain = 0
KPD4 221936Z 14008KT 05/03 A2989 RMK A01 T00520027  RH  084%=      5-min Rain = 0
KPD4 221937Z 15009KT 05/03 A2989 RMK A01 T00530028  RH  084%=      5-min Rain = 0
KPD4 221938Z 13010KT 05/03 A2989 RMK A01 T00530027  RH  083%=      5-min Rain = 0
KPD4 221939Z 14011KT 05/03 A2989 RMK A01 T00530027  RH  083%=      5-min Rain = 0
KPD4 221940Z 15010KT 05/03 A2989 RMK A01 T00530027  RH  083%=      5-min Rain = 0
KPD4 221941Z 14010KT 05/03 A2989 RMK A01 T00530027  RH  083%=      5-min Rain = 0
KPD4 221942Z 15009KT 05/03 A2989 RMK A01 T00530027  RH  083%=      5-min Rain = 0
KPD4 221943Z 15010KT 05/03 A2989 RMK A01 T00520027  RH  084%=      5-min Rain = 0
KPD4 221944Z 15011KT 05/03 A2989 RMK A01 T00520027  RH  084%=      5-min Rain = 0
KPD4 221945Z 16010KT 05/03 A2988 RMK A01 T00510026  RH  084%=      5-min Rain = 0
KPD4 221946Z 15009KT 05/03 A2988 RMK A01 T00510027  RH  084%=      5-min Rain = 0
KPD4 221947Z 15008KT 05/03 A2988 RMK A01 T00520028  RH  084%=      5-min Rain = 0
KPD4 221948Z 17007KT 05/03 A2988 RMK A01 T00530027  RH  084%=      5-min Rain = 0
KPD4 221949Z 15010KT 05/03 A2988 RMK A01 T00530028  RH  084%=      5-min Rain = 0
KPD4 221950Z 14011KT 05/03 A2988 RMK A01 T00540028  RH  083%=      5-min Rain = 0
KPD4 221951Z 14010KT 06/03 A2988 RMK A01 T00550028  RH  083%=      5-min Rain = 0
KPD4 221952Z 14010KT 05/03 A2988 RMK A01 T00540027  RH  083%=      5-min Rain = 0
KPD4 221953Z 14012KT 05/03 A2988 RMK A01 T00540028  RH  083%=      5-min Rain = 0
KPD4 221954Z 14009KT 05/03 A2988 RMK A01 T00540027  RH  083%=      5-min Rain = 0
KPD4 221955Z 15010KT 06/03 A2988 RMK A01 T00550028  RH  083%=      5-min Rain = 0
KPD4 221956Z 14011KT 06/03 A2988 RMK A01 T00550028  RH  083%=      5-min Rain = 0
KPD4 221957Z 14011KT 06/03 A2987 RMK A01 T00550028  RH  083%=      5-min Rain = 0
KPD4 221958Z 15009KT 06/03 A2987 RMK A01 T00550028  RH  083%=      5-min Rain = 0
KPD4 221959Z 15010KT 06/03 A2987 RMK A01 T00550028  RH  083%=      5-min Rain = 0
KPD4 222000Z 15011KT 06/03 A2987 RMK A01 T00550028  RH  082%=      5-min Rain = 0
KPD4 222001Z 14011KT 06/03 A2987 RMK A01 T00560028  RH  082%=      5-min Rain = 0
KPD4 222002Z 14010KT 06/03 A2987 RMK A01 T00550027  RH  082%=      5-min Rain = 0
KPD4 222003Z 14009KT 06/03 A2987 RMK A01 T00550028  RH  083%=      5-min Rain = 0
KPD4 222004Z 14009KT 06/03 A2987 RMK A01 T00570030  RH  082%=      5-min Rain = 0
KPD4 222005Z 14011KT 06/03 A2987 RMK A01 T00580029  RH  082%=      5-min Rain = 0
KPD4 222006Z 14011KT 06/03 A2987 RMK A01 T00580029  RH  082%=      5-min Rain = 0
KPD4 222007Z 14011KT 06/03 A2987 RMK A01 T00580029  RH  082%=      5-min Rain = 0
KPD4 222008Z 15010KT 06/03 A2987 RMK A01 T00580029  RH  082%=      5-min Rain = 0
KPD4 222009Z 14010KT 06/03 A2987 RMK A01 T00580030  RH  082%=      5-min Rain = 0
KPD4 222010Z 13010KT 06/03 A2987 RMK A01 T00580029  RH  082%=      5-min Rain = 0
KPD4 222011Z 14010KT 06/03 A2987 RMK A01 T00570029  RH  082%=      5-min Rain = 0
KPD4 222012Z 15009KT 06/03 A2987 RMK A01 T00570029  RH  082%=      5-min Rain = 0
KPD4 222013Z 14008KT 06/03 A2987 RMK A01 T00580029  RH  082%=      5-min Rain = 0
KPD4 222014Z 14008KT 06/03 A2987 RMK A01 T00580029  RH  082%=      5-min Rain = 0
KPD4 222015Z 14013KT 06/03 A2987 RMK A01 T00600030  RH  081%=      5-min Rain = 0
KPD4 222016Z 14012KT 06/03 A2987 RMK A01 T00590029  RH  081%=      5-min Rain = 0
KPD4 222017Z 14012KT 06/03 A2986 RMK A01 T00570028  RH  082%=      5-min Rain = 0
KPD4 222018Z 13011KT 06/03 A2986 RMK A01 T00560029  RH  083%=      5-min Rain = 0
KPD4 222019Z 13012KT 06/03 A2986 RMK A01 T00550029  RH  083%=      5-min Rain = 0
KPD4 222020Z 15011KT 06/03 A2986 RMK A01 T00550029  RH  084%=      5-min Rain = 0
KPD4 222021Z 13009KT 06/03 A2986 RMK A01 T00550030  RH  084%=      5-min Rain = 0
KPD4 222022Z 12011KT 06/03 A2986 RMK A01 T00560031  RH  084%=      5-min Rain = 0
KPD4 222023Z 13010KT 06/03 A2986 RMK A01 T00560030  RH  083%=      5-min Rain = 0
KPD4 222024Z 13010KT 06/03 A2986 RMK A01 T00550029  RH  083%=      5-min Rain = 0
KPD4 222025Z 13009KT 05/03 A2986 RMK A01 T00540029  RH  084%=      5-min Rain = 0
KPD4 222026Z 14010KT 06/03 A2986 RMK A01 T00550030  RH  084%=      5-min Rain = 0
KPD4 222027Z 14010KT 06/03 A2986 RMK A01 T00550029  RH  084%=      5-min Rain = 0
KPD4 222028Z 14009KT 05/03 A2986 RMK A01 T00540029  RH  084%=      5-min Rain = 0
KPD4 222029Z 14010KT 06/03 A2986 RMK A01 T00550030  RH  084%=      5-min Rain = 0
KPD4 222030Z 14009KT 06/03 A2986 RMK A01 T00560030  RH  084%=      5-min Rain = 0
KPD4 222031Z 15007KT 06/03 A2986 RMK A01 T00560030  RH  084%=      5-min Rain = 0
KPD4 222032Z 14007KT 06/03 A2986 RMK A01 T00560031  RH  083%=      5-min Rain = 0
KPD4 222033Z 14010KT 06/03 A2986 RMK A01 T00570030  RH  083%=      5-min Rain = 0
KPD4 222034Z 14011KT 06/03 A2986 RMK A01 T00570030  RH  083%=      5-min Rain = 0
KPD4 222035Z 14010KT 06/03 A2986 RMK A01 T00560030  RH  083%=      5-min Rain = 0
KPD4 222036Z 15009KT 06/03 A2986 RMK A01 T00550029  RH  084%=      5-min Rain = 0
KPD4 222037Z 13007KT 05/03 A2986 RMK A01 T00530029  RH  084%=      5-min Rain = 0
KPD4 222038Z 14009KT 05/03 A2986 RMK A01 T00540030  RH  085%=      5-min Rain = 0
KPD4 222039Z 14008KT 06/03 A2986 RMK A01 T00550031  RH  084%=      5-min Rain = 0
KPD4 222040Z 13009KT 06/03 A2986 RMK A01 T00560030  RH  084%=      5-min Rain = 0
KPD4 222041Z 14008KT 06/03 A2986 RMK A01 T00550030  RH  084%=      5-min Rain = 0
KPD4 222042Z 14009KT 06/03 A2986 RMK A01 T00550030  RH  084%=      5-min Rain = 0
KPD4 222043Z 14010KT 06/03 A2986 RMK A01 T00560031  RH  084%=      5-min Rain = 0
KPD4 222044Z 14009KT 06/03 A2986 RMK A01 T00560030  RH  083%=      5-min Rain = 0
KPD4 222045Z 14009KT 06/03 A2986 RMK A01 T00560030  RH  083%=      5-min Rain = 0
KPD4 222046Z 15008KT 06/03 A2986 RMK A01 T00570031  RH  083%=      5-min Rain = 0
KPD4 222047Z 14008KT 06/03 A2986 RMK A01 T00570030  RH  083%=      5-min Rain = 0
KPD4 222048Z 14008KT 06/03 A2986 RMK A01 T00570030  RH  083%=      5-min Rain = 0
KPD4 222049Z 14008KT 06/03 A2986 RMK A01 T00580031  RH  083%=      5-min Rain = 0
KPD4 222050Z 14008KT 06/03 A2986 RMK A01 T00580031  RH  083%=      5-min Rain = 0
KPD4 222051Z 14008KT 06/03 A2985 RMK A01 T00600032  RH  083%=      5-min Rain = 0
KPD4 222052Z 14008KT 06/03 A2985 RMK A01 T00610032  RH  082%=      5-min Rain = 0
KPD4 222053Z 14006KT 06/03 A2985 RMK A01 T00600031  RH  081%=      5-min Rain = 0
KPD4 222054Z 14008KT 06/03 A2985 RMK A01 T00600031  RH  082%=      5-min Rain = 0
KPD4 222055Z 15009KT 06/03 A2985 RMK A01 T00600031  RH  082%=      5-min Rain = 0
KPD4 222056Z 14008KT 06/03 A2985 RMK A01 T00610031  RH  081%=      5-min Rain = 0
KPD4 222057Z 14007KT 06/03 A2985 RMK A01 T00610031  RH  082%=      5-min Rain = 0
KPD4 222058Z 14008KT 06/03 A2985 RMK A01 T00610032  RH  082%=      5-min Rain = 0
KPD4 222059Z 14008KT 06/03 A2985 RMK A01 T00620032  RH  081%=      5-min Rain = 0
KPD4 222100Z 13006KT 06/03 A2985 RMK A01 T00620031  RH  081%=      5-min Rain = 0
KPD4 222101Z 12008KT 06/03 A2985 RMK A01 T00640033  RH  080%=      5-min Rain = 0
KPD4 222102Z 13010KT 06/03 A2985 RMK A01 T00640032  RH  080%=      5-min Rain = 0
KPD4 222103Z 13011KT 06/03 A2985 RMK A01 T00640032  RH  080%=      5-min Rain = 0
KPD4 222104Z 13010KT 06/03 A2985 RMK A01 T00640031  RH  079%=      5-min Rain = 0
KPD4 222105Z 13010KT 06/03 A2985 RMK A01 T00630031  RH  080%=      5-min Rain = 0
KPD4 222106Z 12010KT 06/03 A2984 RMK A01 T00640032  RH  080%=      5-min Rain = 0
KPD4 222107Z 12009KT 06/03 A2984 RMK A01 T00640031  RH  080%=      5-min Rain = 0
KPD4 222108Z 11009KT 06/03 A2984 RMK A01 T00630031  RH  080%=      5-min Rain = 0
KPD4 222109Z 13010KT 06/03 A2984 RMK A01 T00640032  RH  080%=      5-min Rain = 0
KPD4 222110Z 13008KT 07/03 A2984 RMK A01 T00650032  RH  079%=      5-min Rain = 0
KPD4 222111Z 14009KT 07/03 A2984 RMK A01 T00660033  RH  079%=      5-min Rain = 0
KPD4 222112Z 13009KT 07/03 A2984 RMK A01 T00680033  RH  078%=      5-min Rain = 0
KPD4 222113Z 14009KT 07/03 A2984 RMK A01 T00680032  RH  077%=      5-min Rain = 0
KPD4 222114Z 14008KT 07/03 A2984 RMK A01 T00670030  RH  077%=      5-min Rain = 0
KPD4 222115Z 13008KT 07/03 A2984 RMK A01 T00660030  RH  078%=      5-min Rain = 0
KPD4 222116Z 12010KT 07/03 A2984 RMK A01 T00670033  RH  079%=      5-min Rain = 0
KPD4 222117Z 13010KT 07/03 A2984 RMK A01 T00680032  RH  078%=      5-min Rain = 0
KPD4 222118Z 12009KT 07/03 A2984 RMK A01 T00680032  RH  078%=      5-min Rain = 0
KPD4 222119Z 13009KT 07/03 A2984 RMK A01 T00690032  RH  077%=      5-min Rain = 0
KPD4 222120Z 15009KT 07/03 A2984 RMK A01 T00690032  RH  077%=      5-min Rain = 0
KPD4 222121Z 13008KT 07/03 A2984 RMK A01 T00700032  RH  077%=      5-min Rain = 0
KPD4 222122Z 12010KT 07/03 A2984 RMK A01 T00710033  RH  077%=      5-min Rain = 0
KPD4 222123Z 13009KT 07/03 A2984 RMK A01 T00700031  RH  076%=      5-min Rain = 0
KPD4 222124Z 13007KT 07/03 A2984 RMK A01 T00690031  RH  077%=      5-min Rain = 0
KPD4 222125Z 13009KT 07/03 A2984 RMK A01 T00700032  RH  077%=      5-min Rain = 0
KPD4 222126Z 12009KT 07/03 A2984 RMK A01 T00700031  RH  076%=      5-min Rain = 0
KPD4 222127Z 12009KT 07/03 A2984 RMK A01 T00700031  RH  076%=      5-min Rain = 0
KPD4 222128Z 13009KT 07/03 A2984 RMK A01 T00710032  RH  076%=      5-min Rain = 0
KPD4 222129Z 13010KT 07/03 A2984 RMK A01 T00720031  RH  075%=      5-min Rain = 0
KPD4 222130Z 13011KT 07/03 A2984 RMK A01 T00710031  RH  075%=      5-min Rain = 0
KPD4 222131Z 13010KT 07/03 A2983 RMK A01 T00710031  RH  076%=      5-min Rain = 0
KPD4 222132Z 14010KT 07/03 A2984 RMK A01 T00710032  RH  076%=      5-min Rain = 0
KPD4 222133Z 15009KT 07/03 A2983 RMK A01 T00730032  RH  075%=      5-min Rain = 0
KPD4 222134Z 13009KT 07/03 A2983 RMK A01 T00730032  RH  075%=      5-min Rain = 0
KPD4 222135Z 13010KT 07/03 A2983 RMK A01 T00740032  RH  075%=      5-min Rain = 0
KPD4 222136Z 14008KT 07/03 A2983 RMK A01 T00730031  RH  075%=      5-min Rain = 0
KPD4 222137Z 13009KT 07/03 A2983 RMK A01 T00740033  RH  075%=      5-min Rain = 0
KPD4 222138Z 13009KT 08/03 A2983 RMK A01 T00750032  RH  074%=      5-min Rain = 0
KPD4 222139Z 14009KT 07/03 A2983 RMK A01 T00740032  RH  075%=      5-min Rain = 0
KPD4 222140Z 14009KT 07/03 A2983 RMK A01 T00740032  RH  075%=      5-min Rain = 0
KPD4 222141Z 14008KT 07/03 A2983 RMK A01 T00740032  RH  074%=      5-min Rain = 0
KPD4 222142Z 12009KT 07/03 A2983 RMK A01 T00730032  RH  075%=      5-min Rain = 0
KPD4 222143Z 12012KT 07/03 A2983 RMK A01 T00740033  RH  075%=      5-min Rain = 0
KPD4 222144Z 12009KT 07/03 A2983 RMK A01 T00740032  RH  075%=      5-min Rain = 0
KPD4 222145Z 12011KT 07/03 A2983 RMK A01 T00730032  RH  075%=      5-min Rain = 0
KPD4 222146Z 12010KT 07/03 A2983 RMK A01 T00730032  RH  075%=      5-min Rain = 0
KPD4 222147Z 11009KT 07/03 A2983 RMK A01 T00730032  RH  075%=      5-min Rain = 0
KPD4 222148Z 12012KT 07/03 A2983 RMK A01 T00730033  RH  076%=      5-min Rain = 0
KPD4 222149Z 12010KT 07/03 A2983 RMK A01 T00730032  RH  075%=      5-min Rain = 0
KPD4 222150Z 12011KT 07/03 A2983 RMK A01 T00740033  RH  075%=      5-min Rain = 0
KPD4 222151Z 12012KT 07/03 A2983 RMK A01 T00730032  RH  075%=      5-min Rain = 0
KPD4 222152Z 12010KT 07/03 A2983 RMK A01 T00720032  RH  075%=      5-min Rain = 0
KPD4 222153Z 11010KT 07/03 A2983 RMK A01 T00710032  RH  076%=      5-min Rain = 0
KPD4 222154Z 12012KT 07/03 A2983 RMK A01 T00720032  RH  076%=      5-min Rain = 0
KPD4 222155Z 12011KT 07/03 A2983 RMK A01 T00720032  RH  076%=      5-min Rain = 0
KPD4 222156Z 13012KT 07/03 A2983 RMK A01 T00720032  RH  076%=      5-min Rain = 0
KPD4 222157Z 12011KT 07/03 A2983 RMK A01 T00720032  RH  076%=      5-min Rain = 0
KPD4 222158Z 12011KT 07/03 A2983 RMK A01 T00720032  RH  075%=      5-min Rain = 0
KPD4 222159Z 13010KT 07/03 A2983 RMK A01 T00730032  RH  075%=      5-min Rain = 0
KPD4 222200Z 13013KT 07/03 A2983 RMK A01 T00740032  RH  075%=      5-min Rain = 0
KPD4 222201Z 14009KT 07/03 A2983 RMK A01 T00740032  RH  074%=      5-min Rain = 0
KPD4 222202Z 14009KT 07/03 A2983 RMK A01 T00740032  RH  075%=      5-min Rain = 0
KPD4 222203Z 14009KT 08/03 A2983 RMK A01 T00760034  RH  075%=      5-min Rain = 0
KPD4 222204Z 10008KT 08/04 A2983 RMK A01 T00780035  RH  074%=      5-min Rain = 0
KPD4 222205Z 10009KT 08/04 A2982 RMK A01 T00790035  RH  074%=      5-min Rain = 0
KPD4 222206Z 12010KT 08/03 A2982 RMK A01 T00770034  RH  074%=      5-min Rain = 0
KPD4 222207Z 12010KT 08/04 A2982 RMK A01 T00770035  RH  074%=      5-min Rain = 0
KPD4 222208Z 12010KT 08/04 A2982 RMK A01 T00790036  RH  074%=      5-min Rain = 0
KPD4 222209Z 11010KT 08/04 A2982 RMK A01 T00800036  RH  074%=      5-min Rain = 0
KPD4 222210Z 10012KT 08/04 A2982 RMK A01 T00800036  RH  074%=      5-min Rain = 0
KPD4 222211Z 10011KT 08/03 A2982 RMK A01 T00780034  RH  074%=      5-min Rain = 0
KPD4 222212Z 10011KT 08/03 A2982 RMK A01 T00760034  RH  074%=      5-min Rain = 0
KPD4 222213Z 11013KT 08/04 A2982 RMK A01 T00780036  RH  075%=      5-min Rain = 0
KPD4 222214Z 10012KT 08/03 A2982 RMK A01 T00770034  RH  074%=      5-min Rain = 0
KPD4 222215Z 10010KT 08/04 A2982 RMK A01 T00770035  RH  074%=      5-min Rain = 0
KPD4 222216Z 10011KT 08/04 A2982 RMK A01 T00800036  RH  074%=      5-min Rain = 0
KPD4 222217Z 10011KT 08/03 A2982 RMK A01 T00810034  RH  072%=      5-min Rain = 0
KPD4 222218Z 09010KT 08/03 A2982 RMK A01 T00790033  RH  073%=      5-min Rain = 0
KPD4 222219Z 09011KT 08/03 A2981 RMK A01 T00780033  RH  073%=      5-min Rain = 0
KPD4 222220Z 11010KT 08/03 A2981 RMK A01 T00780034  RH  073%=      5-min Rain = 0
KPD4 222221Z 10011KT 08/04 A2981 RMK A01 T00790035  RH  074%=      5-min Rain = 0
KPD4 222222Z 10011KT 08/03 A2981 RMK A01 T00800034  RH  073%=      5-min Rain = 0
KPD4 222223Z 10011KT 08/03 A2981 RMK A01 T00800033  RH  073%=      5-min Rain = 0
KPD4 222224Z 09011KT 08/03 A2981 RMK A01 T00800034  RH  073%=      5-min Rain = 0
KPD4 222225Z 10011KT 08/03 A2981 RMK A01 T00800033  RH  073%=      5-min Rain = 0
KPD4 222226Z 10012KT 08/03 A2981 RMK A01 T00780033  RH  073%=      5-min Rain = 0
KPD4 222227Z 10012KT 08/03 A2981 RMK A01 T00780033  RH  073%=      5-min Rain = 0
KPD4 222228Z 11011KT 08/03 A2981 RMK A01 T00790034  RH  073%=      5-min Rain = 0
KPD4 222229Z 11009KT 08/03 A2981 RMK A01 T00790034  RH  073%=      5-min Rain = 0
KPD4 222230Z 12010KT 08/04 A2981 RMK A01 T00790035  RH  073%=      5-min Rain = 0
KPD4 222231Z 11011KT 08/04 A2982 RMK A01 T00790035  RH  073%=      5-min Rain = 0
KPD4 222232Z 11009KT 08/04 A2982 RMK A01 T00790035  RH  073%=      5-min Rain = 0
KPD4 222233Z 10010KT 08/04 A2982 RMK A01 T00790035  RH  074%=      5-min Rain = 0
KPD4 222234Z 10012KT 08/03 A2982 RMK A01 T00780034  RH  074%=      5-min Rain = 0
KPD4 222235Z 11010KT 08/04 A2982 RMK A01 T00780035  RH  074%=      5-min Rain = 0
KPD4 222236Z 12009KT 08/04 A2982 RMK A01 T00790035  RH  074%=      5-min Rain = 0
KPD4 222237Z 10010KT 08/04 A2981 RMK A01 T00800036  RH  074%=      5-min Rain = 0
KPD4 222238Z 10009KT 08/04 A2981 RMK A01 T00800036  RH  074%=      5-min Rain = 0
KPD4 222239Z 11011KT 08/04 A2981 RMK A01 T00810036  RH  073%=      5-min Rain = 0
KPD4 222240Z 11010KT 08/04 A2981 RMK A01 T00800035  RH  073%=      5-min Rain = 0
KPD4 222241Z 12009KT 08/04 A2981 RMK A01 T00790035  RH  073%=      5-min Rain = 0
KPD4 222242Z 11008KT 08/04 A2981 RMK A01 T00790035  RH  074%=      5-min Rain = 0
KPD4 222243Z 11011KT 08/04 A2981 RMK A01 T00790035  RH  074%=      5-min Rain = 0
KPD4 222244Z 11013KT 08/03 A2981 RMK A01 T00780034  RH  074%=      5-min Rain = 0
KPD4 222245Z 10010KT 08/03 A2981 RMK A01 T00770034  RH  074%=      5-min Rain = 0
KPD4 222246Z 11009KT 08/04 A2981 RMK A01 T00780035  RH  075%=      5-min Rain = 0
KPD4 222247Z 12012KT 08/04 A2981 RMK A01 T00810036  RH  074%=      5-min Rain = 0
KPD4 222248Z 11011KT 08/04 A2981 RMK A01 T00810036  RH  073%=      5-min Rain = 0
KPD4 222249Z 11011KT 08/04 A2981 RMK A01 T00810035  RH  073%=      5-min Rain = 0
KPD4 222250Z 11012KT 08/03 A2981 RMK A01 T00800034  RH  073%=      5-min Rain = 0
KPD4 222251Z 12012KT 08/03 A2981 RMK A01 T00800034  RH  073%=      5-min Rain = 0
KPD4 222252Z 12013KT 08/03 A2981 RMK A01 T00780034  RH  074%=      5-min Rain = 0
KPD4 222253Z 12015KT 08/04 A2981 RMK A01 T00800035  RH  074%=      5-min Rain = 0
KPD4 222254Z 12013KT 08/03 A2981 RMK A01 T00800034  RH  073%=      5-min Rain = 0
KPD4 222255Z 11012KT 08/04 A2981 RMK A01 T00800035  RH  073%=      5-min Rain = 0
KPD4 222256Z 12011KT 08/04 A2981 RMK A01 T00800035  RH  073%=      5-min Rain = 0
KPD4 222257Z 11009KT 08/04 A2981 RMK A01 T00800035  RH  073%=      5-min Rain = 0
KPD4 222258Z 12013KT 08/04 A2981 RMK A01 T00820036  RH  073%=      5-min Rain = 0
KPD4 222259Z 12012KT 08/04 A2981 RMK A01 T00820035  RH  072%=      5-min Rain = 0
KPD4 222300Z 13010KT 08/04 A2981 RMK A01 T00820035  RH  072%=      5-min Rain = 0
KPD4 222301Z 11008KT 08/04 A2981 RMK A01 T00820035  RH  072%=      5-min Rain = 0
KPD4 222302Z 12013KT 08/04 A2981 RMK A01 T00830035  RH  072%=      5-min Rain = 0
KPD4 222303Z 12014KT 08/03 A2981 RMK A01 T00830034  RH  072%=      5-min Rain = 0
KPD4 222304Z 12015KT 08/03 A2981 RMK A01 T00810034  RH  072%=      5-min Rain = 0
KPD4 222305Z 12014KT 08/03 A2981 RMK A01 T00810034  RH  072%=      5-min Rain = 0
KPD4 222306Z 11013KT 08/03 A2981 RMK A01 T00800034  RH  073%=      5-min Rain = 0
KPD4 222307Z 12010KT 08/03 A2981 RMK A01 T00800034  RH  073%=      5-min Rain = 0
KPD4 222308Z 12012KT 08/04 A2981 RMK A01 T00810035  RH  073%=      5-min Rain = 0
KPD4 222309Z 12014KT 08/03 A2981 RMK A01 T00810034  RH  072%=      5-min Rain = 0
KPD4 222310Z 13012KT 08/03 A2981 RMK A01 T00800034  RH  073%=      5-min Rain = 0
KPD4 222311Z 12011KT 08/03 A2981 RMK A01 T00790034  RH  073%=      5-min Rain = 0
KPD4 222312Z 11012KT 08/04 A2981 RMK A01 T00800035  RH  073%=      5-min Rain = 0
KPD4 222313Z 11014KT 08/04 A2981 RMK A01 T00810035  RH  073%=      5-min Rain = 0
KPD4 222314Z 11012KT 08/03 A2981 RMK A01 T00790034  RH  073%=      5-min Rain = 0
KPD4 222315Z 11011KT 08/03 A2981 RMK A01 T00780034  RH  074%=      5-min Rain = 0
KPD4 222316Z 11010KT 08/03 A2981 RMK A01 T00770034  RH  074%=      5-min Rain = 0
KPD4 222317Z 12012KT 08/03 A2981 RMK A01 T00780034  RH  074%=      5-min Rain = 0
KPD4 222318Z 11011KT 08/04 A2981 RMK A01 T00780035  RH  074%=      5-min Rain = 0
KPD4 222319Z 11011KT 08/04 A2981 RMK A01 T00780035  RH  074%=      5-min Rain = 0
KPD4 222320Z 12014KT 08/04 A2981 RMK A01 T00790035  RH  074%=      5-min Rain = 0
KPD4 222321Z 12013KT 08/03 A2981 RMK A01 T00790034  RH  074%=      5-min Rain = 0
KPD4 222322Z 11010KT 08/04 A2981 RMK A01 T00780035  RH  074%=      5-min Rain = 0
KPD4 222323Z 11012KT 08/04 A2981 RMK A01 T00780035  RH  074%=      5-min Rain = 0
KPD4 222324Z 12013KT 08/04 A2981 RMK A01 T00790035  RH  074%=      5-min Rain = 0
KPD4 222325Z 12015KT 08/04 A2981 RMK A01 T00780035  RH  074%=      5-min Rain = 0
KPD4 222326Z 12014KT 08/03 A2981 RMK A01 T00780034  RH  074%=      5-min Rain = 0
KPD4 222327Z 12014KT 08/03 A2981 RMK A01 T00780034  RH  074%=      5-min Rain = 0
KPD4 222328Z 12015KT 08/03 A2981 RMK A01 T00780034  RH  074%=      5-min Rain = 0
KPD4 222329Z 12012KT 08/04 A2981 RMK A01 T00780035  RH  074%=      5-min Rain = 0
KPD4 222330Z 12013KT 08/04 A2981 RMK A01 T00780035  RH  074%=      5-min Rain = 0
KPD4 222331Z 12013KT 08/04 A2981 RMK A01 T00780035  RH  074%=      5-min Rain = 0
KPD4 222332Z 12015KT 08/03 A298 RMK A01 T00780034  RH  074%=      5-min Rain = 0
KPD4 222333Z 12013KT 08/03 A298 RMK A01 T00780034  RH  074%=      5-min Rain = 0
KPD4 222334Z 12014KT 08/03 A298 RMK A01 T00770034  RH  074%=      5-min Rain = 0
KPD4 222335Z 12015KT 08/03 A298 RMK A01 T00770034  RH  074%=      5-min Rain = 0
KPD4 222336Z 12015KT 08/03 A298 RMK A01 T00770034  RH  074%=      5-min Rain = 0
KPD4 222337Z 11014KT 08/03 A298 RMK A01 T00770034  RH  074%=      5-min Rain = 0
KPD4 222338Z 10017KT 08/03 A298 RMK A01 T00770034  RH  074%=      5-min Rain = 0
KPD4 222339Z 11016KT 08/03 A298 RMK A01 T00750034  RH  075%=      5-min Rain = 0
KPD4 222340Z 11016KT 08/03 A298 RMK A01 T00750034  RH  075%=      5-min Rain = 0
KPD4 222341Z 11015KT 07/03 A298 RMK A01 T00740034  RH  075%=      5-min Rain = 0
KPD4 222342Z 11016KT 07/03 A298 RMK A01 T00740033  RH  075%=      5-min Rain = 0
KPD4 222343Z 11012KT 08/03 A298 RMK A01 T00750034  RH  075%=      5-min Rain = 0
KPD4 222344Z 12012KT 08/03 A298 RMK A01 T00760034  RH  075%=      5-min Rain = 0
KPD4 222345Z 12013KT 08/03 A298 RMK A01 T00770034  RH  074%=      5-min Rain = 0
KPD4 222346Z 13013KT 08/03 A298 RMK A01 T00770033  RH  074%=      5-min Rain = 0
KPD4 222347Z 13014KT 08/03 A298 RMK A01 T00770033  RH  074%=      5-min Rain = 0
KPD4 222348Z 14015KT 08/03 A298 RMK A01 T00770031  RH  073%=      5-min Rain = 0
KPD4 222349Z 14016KT 08/03 A298 RMK A01 T00770030  RH  072%=      5-min Rain = 0
KPD4 222350Z 13017KT 08/03 A298 RMK A01 T00760030  RH  073%=      5-min Rain = 0
KPD4 222351Z 13016KT 08/03 A298 RMK A01 T00750030  RH  073%=      5-min Rain = 0
KPD4 222352Z 13017KT 07/03 A298 RMK A01 T00740030  RH  073%=      5-min Rain = 0
KPD4 222353Z 13014KT 07/03 A298 RMK A01 T00720029  RH  074%=      5-min Rain = 0
KPD4 222354Z 13015G20KT 07/03 A298 RMK A01 T00710029  RH  075%=      5-min Rain = 0
KPD4 222355Z 14014KT 07/03 A298 RMK A01 T00700029  RH  075%=      5-min Rain = 0
KPD4 222356Z 13013KT 07/03 A298 RMK A01 T00690029  RH  075%=      5-min Rain = 0
KPD4 222357Z 13015KT 07/03 A298 RMK A01 T00680028  RH  076%=      5-min Rain = 0
KPD4 222358Z 13016KT 07/03 A298 RMK A01 T00670028  RH  076%=      5-min Rain = 0
KPD4 222359Z 13015KT 07/03 A298 RMK A01 T00660028  RH  077%=      5-min Rain = 0
KPD4 230000Z 13016KT 07/03 A298 RMK A01 T00650028  RH  077%=      5-min Rain = 0
KPD4 230001Z 13014KT 06/03 A2981 RMK A01 T00640028  RH  077%=      5-min Rain = 0
KPD4 230002Z 13018KT 06/03 A2981 RMK A01 T00640028  RH  078%=      5-min Rain = 0
KPD4 230003Z 14016KT 06/03 A2981 RMK A01 T00640028  RH  078%=      5-min Rain = 0
KPD4 230004Z 14013KT 06/03 A2981 RMK A01 T00640028  RH  078%=      5-min Rain = 0
KPD4 230005Z 14012KT 06/03 A2981 RMK A01 T00640028  RH  078%=      5-min Rain = 0
KPD4 230006Z 14011KT 06/03 A2981 RMK A01 T00640028  RH  078%=      5-min Rain = 0
KPD4 230007Z 13012KT 06/03 A2981 RMK A01 T00640029  RH  078%=      5-min Rain = 0
KPD4 230008Z 13012KT 06/03 A2981 RMK A01 T00640030  RH  079%=      5-min Rain = 0
KPD4 230009Z 13013KT 06/03 A2981 RMK A01 T00640030  RH  079%=      5-min Rain = 0
KPD4 230010Z 14013KT 06/03 A2981 RMK A01 T00640030  RH  079%=      5-min Rain = 0
KPD4 230011Z 13015KT 06/03 A2981 RMK A01 T00640030  RH  079%=      5-min Rain = 0
KPD4 230012Z 13015KT 06/03 A2981 RMK A01 T00630030  RH  079%=      5-min Rain = 0
KPD4 230013Z 13013KT 06/03 A2981 RMK A01 T00630030  RH  079%=      5-min Rain = 0
KPD4 230014Z 13012KT 06/03 A2981 RMK A01 T00630030  RH  079%=      5-min Rain = 0
KPD4 230015Z 14013KT 06/03 A2981 RMK A01 T00630030  RH  079%=      5-min Rain = 0
KPD4 230016Z 14013KT 06/03 A2982 RMK A01 T00630030  RH  079%=      5-min Rain = 0
KPD4 230017Z 14011KT 06/03 A2982 RMK A01 T00630030  RH  080%=      5-min Rain = 0
KPD4 230018Z 14009KT 06/03 A2982 RMK A01 T00620030  RH  080%=      5-min Rain = 0
KPD4 230019Z 13010KT 06/03 A2982 RMK A01 T00620030  RH  080%=      5-min Rain = 0
KPD4 230020Z 13011KT 06/03 A2982 RMK A01 T00620030  RH  080%=      5-min Rain = 0
KPD4 230021Z 13012KT 06/03 A2982 RMK A01 T00620030  RH  080%=      5-min Rain = 0
KPD4 230022Z 14013KT 06/03 A2982 RMK A01 T00610030  RH  080%=      5-min Rain = 0
KPD4 230023Z 13013KT 06/03 A2982 RMK A01 T00610031  RH  081%=      5-min Rain = 0
KPD4 230024Z 13015KT 06/03 A2982 RMK A01 T00610031  RH  081%=      5-min Rain = 0
KPD4 230025Z 14016KT 06/03 A2982 RMK A01 T00610031  RH  081%=      5-min Rain = 0
KPD4 230026Z 14012KT 06/03 A2982 RMK A01 T00600031  RH  081%=      5-min Rain = 0
KPD4 230027Z 14011KT 06/03 A2982 RMK A01 T00600031  RH  081%=      5-min Rain = 0
KPD4 230028Z 13011KT 06/03 A2982 RMK A01 T00600031  RH  082%=      5-min Rain = 0
KPD4 230029Z 13015KT 06/03 A2982 RMK A01 T00590030  RH  082%=      5-min Rain = 0
KPD4 230030Z 13013KT 06/03 A2982 RMK A01 T00590030  RH  082%=      5-min Rain = 0
KPD4 230031Z 13015KT 06/03 A2982 RMK A01 T00580030  RH  082%=      5-min Rain = 0
KPD4 230032Z 13016KT 06/03 A2981 RMK A01 T00580030  RH  083%=      5-min Rain = 0
KPD4 230033Z 13016KT 06/03 A2981 RMK A01 T00570030  RH  083%=      5-min Rain = 0
KPD4 230034Z 13017KT 06/03 A2981 RMK A01 T00570030  RH  083%=      5-min Rain = 0
KPD4 230035Z 13016KT 06/03 A2981 RMK A01 T00560030  RH  083%=      5-min Rain = 0
KPD4 230036Z 13015KT 06/03 A2981 RMK A01 T00560030  RH  083%=      5-min Rain = 0
KPD4 230037Z 13014KT 06/03 A2981 RMK A01 T00560031  RH  084%=      5-min Rain = 0
KPD4 230038Z 13014KT 06/03 A2981 RMK A01 T00560030  RH  084%=      5-min Rain = 0
KPD4 230039Z 13015KT 06/03 A2981 RMK A01 T00560030  RH  084%=      5-min Rain = 0
KPD4 230040Z 14012KT 06/03 A2981 RMK A01 T00550030  RH  084%=      5-min Rain = 0
KPD4 230041Z 13012KT 06/03 A2981 RMK A01 T00550030  RH  084%=      5-min Rain = 0
KPD4 230042Z 13012KT 06/03 A2981 RMK A01 T00550030  RH  084%=      5-min Rain = 0
KPD4 230043Z 13013KT 06/03 A2981 RMK A01 T00550030  RH  084%=      5-min Rain = 0
KPD4 230044Z 13014KT 06/03 A2981 RMK A01 T00550030  RH  084%=      5-min Rain = 0
KPD4 230045Z 13016KT 06/03 A2981 RMK A01 T00550030  RH  084%=      5-min Rain = 0
KPD4 230046Z 13016KT 06/03 A2982 RMK A01 T00550030  RH  084%=      5-min Rain = 0
KPD4 230047Z 13017KT 05/03 A2982 RMK A01 T00540030  RH  084%=      5-min Rain = 0
KPD4 230048Z 13016KT 05/03 A2982 RMK A01 T00540030  RH  085%=      5-min Rain = 0
KPD4 230049Z 13016KT 05/03 A2982 RMK A01 T00540030  RH  085%=      5-min Rain = 0
KPD4 230050Z 13014KT 05/03 A2982 RMK A01 T00540030  RH  085%=      5-min Rain = 0
KPD4 230051Z 14014KT 05/03 A2982 RMK A01 T00530030  RH  085%=      5-min Rain = 0
KPD4 230052Z 14012KT 05/03 A2982 RMK A01 T00530030  RH  085%=      5-min Rain = 0
KPD4 230053Z 14011KT 05/03 A2982 RMK A01 T00530030  RH  085%=      5-min Rain = 0
KPD4 230054Z 14012G17KT 05/03 A2982 RMK A01 T00530030  RH  085%=      5-min Rain = 0
KPD4 230055Z 14016KT 05/03 A2982 RMK A01 T00530030  RH  086%=      5-min Rain = 0
KPD4 230056Z 14012KT 05/03 A2982 RMK A01 T00520031  RH  086%=      5-min Rain = 0
KPD4 230057Z 15013KT 05/03 A2982 RMK A01 T00520031  RH  086%=      5-min Rain = 0
KPD4 230058Z 15013KT 05/03 A2982 RMK A01 T00520030  RH  086%=      5-min Rain = 0
KPD4 230059Z 15014KT 05/03 A2982 RMK A01 T00520030  RH  085%=      5-min Rain = 0
KPD4 230100Z 14015KT 05/03 A2982 RMK A01 T00520030  RH  086%=      5-min Rain = 0
KPD4 230101Z 15016KT 05/03 A2982 RMK A01 T00520030  RH  086%=      5-min Rain = 0
KPD4 230102Z 14015KT 05/03 A2982 RMK A01 T00520030  RH  086%=      5-min Rain = 0
KPD4 230103Z 14016KT 05/03 A2982 RMK A01 T00520030  RH  086%=      5-min Rain = 0
KPD4 230104Z 14015KT 05/03 A2981 RMK A01 T00510030  RH  086%=      5-min Rain = 0
KPD4 230105Z 14014KT 05/03 A2981 RMK A01 T00510030  RH  086%=      5-min Rain = 0
KPD4 230106Z 14015KT 05/03 A2981 RMK A01 T00510030  RH  086%=      5-min Rain = 0
KPD4 230107Z 14012KT 05/03 A2981 RMK A01 T00510030  RH  086%=      5-min Rain = 0
KPD4 230108Z 15012KT 05/03 A2981 RMK A01 T00510030  RH  086%=      5-min Rain = 0
KPD4 230109Z 14013KT 05/03 A2981 RMK A01 T00510030  RH  086%=      5-min Rain = 0
KPD4 230110Z 14016KT 05/03 A2981 RMK A01 T00510029  RH  086%=      5-min Rain = 0
KPD4 230111Z 15013KT 05/03 A2981 RMK A01 T00510028  RH  085%=      5-min Rain = 0
KPD4 230112Z 15012KT 05/03 A2981 RMK A01 T00510028  RH  085%=      5-min Rain = 0
KPD4 230113Z 14011KT 05/03 A2981 RMK A01 T00510028  RH  085%=      5-min Rain = 0
KPD4 230114Z 15010KT 05/03 A2981 RMK A01 T00510028  RH  085%=      5-min Rain = 0
KPD4 230115Z 15014KT 05/03 A2981 RMK A01 T00510028  RH  085%=      5-min Rain = 0
KPD4 230116Z 15012KT 05/03 A2981 RMK A01 T00520028  RH  084%=      5-min Rain = 0
KPD4 230117Z 15010KT 05/03 A2981 RMK A01 T00520028  RH  084%=      5-min Rain = 0
KPD4 230118Z 15012KT 05/03 A2981 RMK A01 T00520028  RH  084%=      5-min Rain = 0
KPD4 230119Z 16011KT 05/03 A2981 RMK A01 T00520027  RH  084%=      5-min Rain = 0
KPD4 230120Z 15011KT 05/03 A2981 RMK A01 T00530027  RH  084%=      5-min Rain = 0
KPD4 230121Z 16011KT 05/03 A2982 RMK A01 T00530027  RH  084%=      5-min Rain = 0
KPD4 230122Z 16011KT 05/03 A2982 RMK A01 T00530027  RH  083%=      5-min Rain = 0
KPD4 230123Z 16013KT 05/03 A2982 RMK A01 T00530027  RH  083%=      5-min Rain = 0
KPD4 230124Z 16011KT 05/03 A2982 RMK A01 T00540027  RH  083%=      5-min Rain = 0
KPD4 230125Z 15011KT 05/03 A2982 RMK A01 T00540027  RH  083%=      5-min Rain = 0
KPD4 230126Z 15011KT 05/03 A2982 RMK A01 T00540027  RH  083%=      5-min Rain = 0
KPD4 230127Z 15012KT 05/03 A2982 RMK A01 T00540028  RH  083%=      5-min Rain = 0
KPD4 230128Z 15011KT 05/03 A2982 RMK A01 T00540027  RH  083%=      5-min Rain = 0
KPD4 230129Z 15012KT 05/03 A2982 RMK A01 T00540028  RH  083%=      5-min Rain = 0
KPD4 230130Z 15013KT 06/03 A2982 RMK A01 T00550028  RH  083%=      5-min Rain = 0
KPD4 230131Z 14012KT 06/03 A2982 RMK A01 T00550028  RH  083%=      5-min Rain = 0
KPD4 230132Z 14014KT 06/03 A2982 RMK A01 T00550028  RH  083%=      5-min Rain = 0
KPD4 230133Z 15014KT 06/03 A2982 RMK A01 T00550028  RH  083%=      5-min Rain = 0
KPD4 230134Z 15014KT 06/03 A2982 RMK A01 T00550029  RH  083%=      5-min Rain = 0
KPD4 230135Z 14012KT 06/03 A2982 RMK A01 T00550029  RH  083%=      5-min Rain = 0
KPD4 230136Z 14013KT 06/03 A2982 RMK A01 T00550029  RH  083%=      5-min Rain = 0
KPD4 230137Z 14013KT 06/03 A2982 RMK A01 T00550029  RH  083%=      5-min Rain = 0
KPD4 230138Z 16013KT 06/03 A2982 RMK A01 T00550029  RH  083%=      5-min Rain = 0
KPD4 230139Z 15010KT 06/03 A2982 RMK A01 T00550029  RH  083%=      5-min Rain = 0
KPD4 230140Z 15010KT 06/03 A2982 RMK A01 T00550029  RH  083%=      5-min Rain = 0
KPD4 230141Z 14012KT 06/03 A2982 RMK A01 T00550029  RH  084%=      5-min Rain = 0
KPD4 230142Z 15012KT 06/03 A2982 RMK A01 T00550029  RH  084%=      5-min Rain = 0
KPD4 230143Z 14012KT 06/03 A2982 RMK A01 T00550029  RH  084%=      5-min Rain = 0
KPD4 230144Z 15012KT 06/03 A2982 RMK A01 T00550029  RH  084%=      5-min Rain = 0
KPD4 230145Z 14013KT 06/03 A2982 RMK A01 T00550029  RH  084%=      5-min Rain = 0
KPD4 230146Z 15011KT 06/03 A2982 RMK A01 T00550029  RH  084%=      5-min Rain = 0
KPD4 230147Z 15014KT 06/03 A2982 RMK A01 T00550030  RH  084%=      5-min Rain = 0
KPD4 230148Z 15012KT 06/03 A2983 RMK A01 T00550030  RH  084%=      5-min Rain = 0
KPD4 230149Z 15011KT 05/03 A2983 RMK A01 T00540030  RH  084%=      5-min Rain = 0
KPD4 230150Z 15013KT 05/03 A2983 RMK A01 T00540029  RH  084%=      5-min Rain = 0
KPD4 230151Z 14015KT 06/03 A2983 RMK A01 T00550029  RH  084%=      5-min Rain = 0
KPD4 230152Z 14010KT 06/03 A2983 RMK A01 T00550029  RH  084%=      5-min Rain = 0
KPD4 230153Z 15013KT 06/03 A2983 RMK A01 T00550029  RH  084%=      5-min Rain = 0
KPD4 230154Z 15013KT 06/03 A2983 RMK A01 T00550030  RH  084%=      5-min Rain = 0
KPD4 230155Z 14011KT 06/03 A2983 RMK A01 T00550030  RH  084%=      5-min Rain = 0
KPD4 230156Z 14010KT 06/03 A2983 RMK A01 T00550030  RH  084%=      5-min Rain = 0
KPD4 230157Z 14011KT 05/03 A2983 RMK A01 T00540030  RH  084%=      5-min Rain = 0
KPD4 230158Z 15014KT 05/03 A2983 RMK A01 T00540030  RH  085%=      5-min Rain = 0
KPD4 230159Z 15013KT 05/03 A2983 RMK A01 T00540030  RH  085%=      5-min Rain = 0
KPD4 230200Z 14014KT 05/03 A2983 RMK A01 T00540031  RH  085%=      5-min Rain = 0
KPD4 230201Z 14013KT 05/03 A2983 RMK A01 T00540031  RH  085%=      5-min Rain = 0
KPD4 230202Z 15013KT 05/03 A2983 RMK A01 T00540031  RH  085%=      5-min Rain = 0
KPD4 230203Z 16013KT 05/03 A2983 RMK A01 T00540031  RH  085%=      5-min Rain = 0
KPD4 230204Z 15015KT 05/03 A2983 RMK A01 T00540031  RH  085%=      5-min Rain = 0
KPD4 230205Z 15012KT 05/03 A2983 RMK A01 T00540031  RH  085%=      5-min Rain = 0
KPD4 230206Z 15015G20KT 05/03 A2983 RMK A01 T00540031  RH  085%=      5-min Rain = 0
KPD4 230207Z 15014KT 05/03 A2983 RMK A01 T00540032  RH  086%=      5-min Rain = 0
KPD4 230208Z 15014KT 05/03 A2983 RMK A01 T00530032  RH  086%=      5-min Rain = 0
KPD4 230209Z 15016KT 05/03 A2982 RMK A01 T00530032  RH  086%=      5-min Rain = 0
KPD4 230210Z 15017KT 05/03 A2982 RMK A01 T00530032  RH  086%=      5-min Rain = 0
KPD4 230211Z 15015KT 05/03 A2982 RMK A01 T00530033  RH  087%=      5-min Rain = 0
KPD4 230212Z 15014KT 05/03 A2982 RMK A01 T00530033  RH  087%=      5-min Rain = 0
KPD4 230213Z 15014G19KT 05/03 A2982 RMK A01 T00530033  RH  087%=      5-min Rain = 0
KPD4 230214Z 14016KT 05/03 A2982 RMK A01 T00530033  RH  087%=      5-min Rain = 0
KPD4 230215Z 16016KT 05/03 A2982 RMK A01 T00520033  RH  087%=      5-min Rain = 0
KPD4 230216Z 15017KT 05/03 A2982 RMK A01 T00520032  RH  087%=      5-min Rain = 0
KPD4 230217Z 15016KT 05/03 A2982 RMK A01 T00520032  RH  087%=      5-min Rain = 0
KPD4 230218Z 15016KT 05/03 A2982 RMK A01 T00530033  RH  087%=      5-min Rain = 0
KPD4 230219Z 15016KT 05/03 A2982 RMK A01 T00520032  RH  087%=      5-min Rain = 0
KPD4 230220Z 15017KT 05/03 A2982 RMK A01 T00520032  RH  087%=      5-min Rain = 0
KPD4 230221Z 15017KT 05/03 A2982 RMK A01 T00520032  RH  087%=      5-min Rain = 0
KPD4 230222Z 15016KT 05/03 A2982 RMK A01 T00520033  RH  088%=      5-min Rain = 0
KPD4 230223Z 16015KT 05/03 A2981 RMK A01 T00510033  RH  088%=      5-min Rain = 0
KPD4 230224Z 15014KT 05/03 A2981 RMK A01 T00510033  RH  088%=      5-min Rain = 0
KPD4 230225Z 16016KT 05/03 A2981 RMK A01 T00510033  RH  088%=      5-min Rain = 0
KPD4 230226Z 15013KT 05/03 A2981 RMK A01 T00500032  RH  088%=      5-min Rain = 0
KPD4 230227Z 15014KT 05/03 A2981 RMK A01 T00510033  RH  088%=      5-min Rain = 0
KPD4 230228Z 14016KT 05/03 A2981 RMK A01 T00500033  RH  088%=      5-min Rain = 0
KPD4 230229Z 15016KT 05/03 A2981 RMK A01 T00500032  RH  088%=      5-min Rain = 0
KPD4 230230Z 15016KT 05/03 A2981 RMK A01 T00500032  RH  088%=      5-min Rain = 0
KPD4 230231Z 15014KT 05/03 A2981 RMK A01 T00500032  RH  088%=      5-min Rain = 0
KPD4 230232Z 15014G20KT 05/03 A2981 RMK A01 T00490032  RH  088%=      5-min Rain = 0
KPD4 230233Z 15016KT 05/03 A2981 RMK A01 T00500031  RH  088%=      5-min Rain = 0
KPD4 230234Z 15016KT 05/03 A2981 RMK A01 T00490031  RH  088%=      5-min Rain = 0
KPD4 230235Z 15015KT 05/03 A2981 RMK A01 T00490031  RH  088%=      5-min Rain = 0
KPD4 230236Z 15016KT 05/03 A2981 RMK A01 T00490030  RH  088%=      5-min Rain = 0
KPD4 230237Z 15016KT 05/03 A2981 RMK A01 T00490029  RH  087%=      5-min Rain = 0
KPD4 230238Z 15016KT 05/03 A2981 RMK A01 T00490029  RH  087%=      5-min Rain = 0
KPD4 230239Z 15013KT 05/03 A2981 RMK A01 T00490029  RH  087%=      5-min Rain = 0
KPD4 230240Z 15015KT 05/03 A2981 RMK A01 T00490029  RH  087%=      5-min Rain = 0
KPD4 230241Z 16013KT 05/03 A2981 RMK A01 T00490029  RH  087%=      5-min Rain = 0
KPD4 230242Z 17013KT 05/03 A2981 RMK A01 T00490029  RH  087%=      5-min Rain = 0
KPD4 230243Z 16014KT 05/03 A2981 RMK A01 T00490029  RH  087%=      5-min Rain = 0
KPD4 230244Z 16015KT 05/03 A2981 RMK A01 T00480028  RH  087%=      5-min Rain = 0
KPD4 230245Z 16013KT 05/03 A2981 RMK A01 T00480028  RH  087%=      5-min Rain = 0
KPD4 230246Z 15014KT 05/03 A2981 RMK A01 T00480028  RH  087%=      5-min Rain = 0
KPD4 230247Z 15011KT 05/03 A2981 RMK A01 T00480029  RH  087%=      5-min Rain = 0
KPD4 230248Z 15011KT 05/03 A2981 RMK A01 T00480029  RH  088%=      5-min Rain = 0
KPD4 230249Z 15012KT 05/03 A2981 RMK A01 T00480030  RH  088%=      5-min Rain = 0
KPD4 230250Z 15012KT 05/03 A2981 RMK A01 T00480030  RH  088%=      5-min Rain = 0
KPD4 230251Z 15012KT 05/03 A2981 RMK A01 T00470030  RH  089%=      5-min Rain = 0
KPD4 230252Z 15011KT 05/03 A2981 RMK A01 T00470030  RH  089%=      5-min Rain = 0
KPD4 230253Z 14013G18KT 05/03 A2981 RMK A01 T00470030  RH  089%=      5-min Rain = 0
KPD4 230254Z 15014KT 05/03 A2981 RMK A01 T00470030  RH  088%=      5-min Rain = 0
KPD4 230255Z 15015KT 05/03 A2981 RMK A01 T00470030  RH  088%=      5-min Rain = 0
KPD4 230256Z 15014KT 05/03 A2981 RMK A01 T00480029  RH  088%=      5-min Rain = 0
KPD4 230257Z 15014KT 05/03 A2981 RMK A01 T00480029  RH  088%=      5-min Rain = 0
KPD4 230258Z 15014KT 05/03 A2981 RMK A01 T00470029  RH  088%=      5-min Rain = 0
KPD4 230259Z 15014KT 05/03 A2981 RMK A01 T00470029  RH  088%=      5-min Rain = 0
KPD4 230300Z 15014KT 05/03 A2981 RMK A01 T00470029  RH  088%=      5-min Rain = 0
KPD4 230301Z 15013KT 05/03 A298 RMK A01 T00470029  RH  088%=      5-min Rain = 0
KPD4 230302Z 15012KT 05/03 A298 RMK A01 T00470028  RH  088%=      5-min Rain = 0
KPD4 230303Z 14013KT 05/03 A298 RMK A01 T00470028  RH  088%=      5-min Rain = 0
KPD4 230304Z 15014KT 05/03 A298 RMK A01 T00470028  RH  087%=      5-min Rain = 0
KPD4 230305Z 15015KT 05/03 A298 RMK A01 T00470027  RH  087%=      5-min Rain = 0
KPD4 230306Z 14014KT 05/03 A298 RMK A01 T00470027  RH  087%=      5-min Rain = 0
KPD4 230307Z 15016KT 05/03 A298 RMK A01 T00470027  RH  087%=      5-min Rain = 0
KPD4 230308Z 14015KT 05/03 A298 RMK A01 T00470028  RH  087%=      5-min Rain = 0
KPD4 230309Z 15016KT 05/03 A298 RMK A01 T00470027  RH  087%=      5-min Rain = 0
KPD4 230310Z 15015KT 05/03 A298 RMK A01 T00460027  RH  087%=      5-min Rain = 0
KPD4 230311Z 15014KT 05/03 A298 RMK A01 T00470027  RH  087%=      5-min Rain = 0
KPD4 230312Z 15014KT 05/03 A298 RMK A01 T00470027  RH  087%=      5-min Rain = 0
KPD4 230313Z 16015KT 05/03 A298 RMK A01 T00460026  RH  087%=      5-min Rain = 0
KPD4 230314Z 14014KT 05/03 A298 RMK A01 T00460026  RH  087%=      5-min Rain = 0
KPD4 230315Z 15016KT 05/03 A298 RMK A01 T00460025  RH  086%=      5-min Rain = 0
KPD4 230316Z 14017KT 05/03 A298 RMK A01 T00460025  RH  086%=      5-min Rain = 0
KPD4 230317Z 14016G21KT 05/03 A298 RMK A01 T00460025  RH  086%=      5-min Rain = 0
KPD4 230318Z 15017KT 05/03 A298 RMK A01 T00460025  RH  086%=      5-min Rain = 0
KPD4 230319Z 14015KT 05/03 A298 RMK A01 T00460025  RH  086%=      5-min Rain = 0
KPD4 230320Z 14016KT 05/03 A298 RMK A01 T00460025  RH  086%=      5-min Rain = 0
KPD4 230321Z 14015G20KT 05/03 A2979 RMK A01 T00460025  RH  086%=      5-min Rain = 0
KPD4 230322Z 15017KT 05/03 A2979 RMK A01 T00460025  RH  086%=      5-min Rain = 0
KPD4 230323Z 15015KT 05/03 A2979 RMK A01 T00460025  RH  086%=      5-min Rain = 0
KPD4 230324Z 15017KT 05/03 A2979 RMK A01 T00460025  RH  086%=      5-min Rain = 0
KPD4 230325Z 15014KT 05/03 A2979 RMK A01 T00460025  RH  086%=      5-min Rain = 0
KPD4 230326Z 15014KT 05/03 A2979 RMK A01 T00460025  RH  086%=      5-min Rain = 0
KPD4 230327Z 15016KT 05/03 A2979 RMK A01 T00460025  RH  087%=      5-min Rain = 0
KPD4 230328Z 15018KT 05/03 A2979 RMK A01 T00460025  RH  087%=      5-min Rain = 0
KPD4 230329Z 14015KT 05/03 A2979 RMK A01 T00460026  RH  087%=      5-min Rain = 0
KPD4 230330Z 14016KT 05/03 A2979 RMK A01 T00460025  RH  087%=      5-min Rain = 0
KPD4 230331Z 15014KT 05/03 A2979 RMK A01 T00460025  RH  087%=      5-min Rain = 0
KPD4 230332Z 15013KT 05/03 A2979 RMK A01 T00450025  RH  087%=      5-min Rain = 0
KPD4 230333Z 14013KT 05/03 A2979 RMK A01 T00450025  RH  087%=      5-min Rain = 0
KPD4 230334Z 15010KT 05/03 A2979 RMK A01 T00450025  RH  087%=      5-min Rain = 0
KPD4 230335Z 15012G17KT 05/03 A2979 RMK A01 T00460025  RH  086%=      5-min Rain = 0
KPD4 230336Z 15013KT 05/02 A2979 RMK A01 T00450024  RH  086%=      5-min Rain = 0
KPD4 230337Z 14015KT 05/03 A2979 RMK A01 T00450025  RH  087%=      5-min Rain = 0
KPD4 230338Z 14015KT 05/03 A2979 RMK A01 T00450026  RH  087%=      5-min Rain = 0
KPD4 230339Z 15015KT 05/03 A2978 RMK A01 T00450026  RH  088%=      5-min Rain = 0
KPD4 230340Z 14015KT 05/03 A2978 RMK A01 T00450026  RH  088%=      5-min Rain = 0
KPD4 230341Z 14012KT 05/03 A2978 RMK A01 T00450027  RH  088%=      5-min Rain = 0
KPD4 230342Z 15014KT 04/03 A2978 RMK A01 T00440027  RH  088%=      5-min Rain = 0
KPD4 230343Z 14016KT 04/03 A2978 RMK A01 T00440027  RH  088%=      5-min Rain = 0
KPD4 230344Z 14015KT 05/03 A2978 RMK A01 T00450027  RH  088%=      5-min Rain = 0
KPD4 230345Z 14018KT 05/03 A2978 RMK A01 T00450027  RH  088%=      5-min Rain = 0
KPD4 230346Z 15016G21KT 05/03 A2978 RMK A01 T00450027  RH  088%=      5-min Rain = 0
KPD4 230347Z 14018G23KT 04/03 A2978 RMK A01 T00440027  RH  088%=      5-min Rain = 0
KPD4 230348Z 14018KT 04/03 A2978 RMK A01 T00440026  RH  088%=      5-min Rain = 0
KPD4 230349Z 14018KT 04/03 A2978 RMK A01 T00440026  RH  088%=      5-min Rain = 0
KPD4 230350Z 14018KT 04/03 A2978 RMK A01 T00440026  RH  088%=      5-min Rain = 0
KPD4 230351Z 15018KT 04/03 A2978 RMK A01 T00440025  RH  088%=      5-min Rain = 0
KPD4 230352Z 15018KT 04/03 A2978 RMK A01 T00440025  RH  088%=      5-min Rain = 0
KPD4 230353Z 15018KT 04/03 A2978 RMK A01 T00440025  RH  088%=      5-min Rain = 0
KPD4 230354Z 15015KT 04/03 A2978 RMK A01 T00430025  RH  088%=      5-min Rain = 0
KPD4 230355Z 15013KT 04/03 A2978 RMK A01 T00440025  RH  088%=      5-min Rain = 0
KPD4 230356Z 14012KT 04/03 A2978 RMK A01 T00440025  RH  088%=      5-min Rain = 0
KPD4 230357Z 14013KT 04/03 A2978 RMK A01 T00440026  RH  088%=      5-min Rain = 0
KPD4 230358Z 14013KT 04/03 A2978 RMK A01 T00440026  RH  088%=      5-min Rain = 0
KPD4 230359Z 14012KT 04/03 A2978 RMK A01 T00440026  RH  088%=      5-min Rain = 0
KPD4 230400Z 14015KT 04/03 A2978 RMK A01 T00440026  RH  088%=      5-min Rain = 0
KPD4 230401Z 14015KT 04/03 A2978 RMK A01 T00440026  RH  088%=      5-min Rain = 0
KPD4 230402Z 15013KT 04/03 A2978 RMK A01 T00430026  RH  088%=      5-min Rain = 0
KPD4 230403Z 15016KT 04/03 A2978 RMK A01 T00430025  RH  088%=      5-min Rain = 0
KPD4 230404Z 15014G19KT 04/03 A2978 RMK A01 T00430025  RH  088%=      5-min Rain = 0
KPD4 230405Z 15018KT 04/03 A2978 RMK A01 T00430025  RH  088%=      5-min Rain = 0
KPD4 230406Z 15015KT 04/02 A2977 RMK A01 T00430024  RH  088%=      5-min Rain = 0
KPD4 230407Z 14014KT 04/02 A2977 RMK A01 T00430024  RH  088%=      5-min Rain = 0
KPD4 230408Z 14014KT 04/03 A2977 RMK A01 T00430025  RH  088%=      5-min Rain = 0
KPD4 230409Z 13016KT 04/03 A2977 RMK A01 T00430025  RH  088%=      5-min Rain = 0
KPD4 230410Z 14015KT 04/03 A2977 RMK A01 T00430025  RH  088%=      5-min Rain = 0
KPD4 230411Z 14011KT 04/03 A2977 RMK A01 T00430025  RH  088%=      5-min Rain = 0
KPD4 230412Z 14012KT 04/03 A2977 RMK A01 T00430025  RH  088%=      5-min Rain = 0
KPD4 230413Z 14013KT 04/03 A2977 RMK A01 T00430025  RH  088%=      5-min Rain = 0
KPD4 230414Z 14013KT 04/03 A2977 RMK A01 T00430026  RH  088%=      5-min Rain = 0
KPD4 230415Z 14012KT 04/03 A2977 RMK A01 T00430026  RH  088%=      5-min Rain = 0
KPD4 230416Z 14011KT 04/03 A2977 RMK A01 T00430025  RH  088%=      5-min Rain = 0
KPD4 230417Z 14010KT 04/03 A2977 RMK A01 T00430026  RH  089%=      5-min Rain = 0
KPD4 230418Z 14015KT 04/03 A2977 RMK A01 T00430026  RH  089%=      5-min Rain = 0
KPD4 230419Z 14016KT 04/03 A2977 RMK A01 T00430026  RH  089%=      5-min Rain = 0
KPD4 230420Z 14014KT 04/03 A2977 RMK A01 T00430026  RH  089%=      5-min Rain = 0
KPD4 230421Z 15013KT 04/03 A2977 RMK A01 T00430027  RH  089%=      5-min Rain = 0
KPD4 230422Z 15013KT 04/03 A2977 RMK A01 T00430027  RH  089%=      5-min Rain = 0
KPD4 230423Z 13015KT 04/03 A2977 RMK A01 T00430027  RH  089%=      5-min Rain = 0
KPD4 230424Z 14016KT 04/03 A2977 RMK A01 T00430027  RH  089%=      5-min Rain = 0
KPD4 230425Z 14018KT 04/03 A2977 RMK A01 T00430027  RH  089%=      5-min Rain = 0
KPD4 230426Z 14014KT 04/03 A2977 RMK A01 T00430027  RH  089%=      5-min Rain = 0
KPD4 230427Z 14014KT 04/03 A2977 RMK A01 T00430027  RH  089%=      5-min Rain = 0
KPD4 230428Z 14012KT 04/03 A2976 RMK A01 T00430027  RH  089%=      5-min Rain = 0
KPD4 230429Z 14012KT 04/03 A2976 RMK A01 T00430027  RH  089%=      5-min Rain = 0
KPD4 230430Z 14012KT 04/03 A2977 RMK A01 T00430027  RH  089%=      5-min Rain = 0
KPD4 230431Z 14014KT 04/03 A2977 RMK A01 T00430027  RH  089%=      5-min Rain = 0
KPD4 230432Z 14014KT 04/03 A2977 RMK A01 T00430027  RH  089%=      5-min Rain = 0
KPD4 230433Z 14016KT 04/03 A2977 RMK A01 T00430027  RH  089%=      5-min Rain = 0
KPD4 230434Z 13016KT 04/03 A2977 RMK A01 T00430027  RH  089%=      5-min Rain = 0
KPD4 230435Z 13013KT 04/03 A2977 RMK A01 T00430027  RH  089%=      5-min Rain = 0
KPD4 230436Z 14013KT 04/03 A2977 RMK A01 T00420026  RH  089%=      5-min Rain = 0
KPD4 230437Z 14012KT 04/03 A2977 RMK A01 T00420026  RH  089%=      5-min Rain = 0
KPD4 230438Z 14012KT 04/03 A2977 RMK A01 T00420026  RH  089%=      5-min Rain = 0
KPD4 230439Z 14012KT 04/03 A2977 RMK A01 T00420026  RH  089%=      5-min Rain = 0
KPD4 230440Z 15015KT 04/03 A2977 RMK A01 T00430027  RH  089%=      5-min Rain = 0
KPD4 230441Z 15014KT 04/03 A2977 RMK A01 T00420026  RH  089%=      5-min Rain = 0
KPD4 230442Z 15015KT 04/03 A2977 RMK A01 T00420026  RH  089%=      5-min Rain = 0
KPD4 230443Z 14016KT 04/03 A2977 RMK A01 T00420026  RH  089%=      5-min Rain = 0
KPD4 230444Z 15016KT 04/03 A2977 RMK A01 T00420025  RH  089%=      5-min Rain = 0
KPD4 230445Z 15016KT 04/03 A2977 RMK A01 T00420026  RH  089%=      5-min Rain = 0
KPD4 230446Z 14015KT 04/03 A2977 RMK A01 T00420026  RH  089%=      5-min Rain = 0
KPD4 230447Z 14016KT 04/03 A2977 RMK A01 T00420026  RH  089%=      5-min Rain = 0
KPD4 230448Z 14016KT 04/03 A2977 RMK A01 T00420026  RH  089%=      5-min Rain = 0
KPD4 230449Z 14019KT 04/03 A2977 RMK A01 T00420027  RH  090%=      5-min Rain = 0
KPD4 230450Z 14019KT 04/03 A2977 RMK A01 T00420027  RH  090%=      5-min Rain = 0
KPD4 230451Z 15017KT 04/03 A2977 RMK A01 T00420027  RH  090%=      5-min Rain = 0
KPD4 230452Z 15016KT 04/03 A2977 RMK A01 T00420027  RH  090%=      5-min Rain = 0
KPD4 230453Z 15018KT 04/03 A2977 RMK A01 T00420027  RH  090%=      5-min Rain = 0
KPD4 230454Z 15017KT 04/03 A2977 RMK A01 T00420027  RH  090%=      5-min Rain = 0
KPD4 230455Z 15015KT 04/03 A2977 RMK A01 T00420027  RH  090%=      5-min Rain = 0
KPD4 230456Z 15014KT 04/03 A2977 RMK A01 T00420027  RH  090%=      5-min Rain = 0
KPD4 230457Z 15015KT 04/03 A2977 RMK A01 T00420026  RH  090%=      5-min Rain = 0
KPD4 230458Z 15015KT 04/03 A2977 RMK A01 T00420027  RH  090%=      5-min Rain = 0
KPD4 230459Z 15017KT 04/03 A2977 RMK A01 T00420027  RH  090%=      5-min Rain = 0
KPD4 230500Z 15016KT 04/03 A2977 RMK A01 T00420026  RH  090%=      5-min Rain = 0
KPD4 230501Z 15019KT 04/03 A2977 RMK A01 T00420026  RH  090%=      5-min Rain = 0
KPD4 230502Z 15016KT 04/03 A2977 RMK A01 T00420026  RH  090%=      5-min Rain = 0
KPD4 230503Z 15016KT 04/03 A2977 RMK A01 T00420026  RH  089%=      5-min Rain = 0
KPD4 230504Z 14017KT 04/03 A2976 RMK A01 T00420026  RH  090%=      5-min Rain = 0
KPD4 230505Z 14015KT 04/03 A2976 RMK A01 T00420027  RH  090%=      5-min Rain = 0
KPD4 230506Z 13012KT 04/03 A2976 RMK A01 T00420026  RH  090%=      5-min Rain = 0
KPD4 230507Z 14016KT 04/03 A2976 RMK A01 T00420026  RH  090%=      5-min Rain = 0
KPD4 230508Z 14014KT 04/03 A2976 RMK A01 T00420026  RH  090%=      5-min Rain = 0
KPD4 230509Z 14012KT 04/03 A2976 RMK A01 T00420026  RH  090%=      5-min Rain = 0
KPD4 230510Z 15015KT 04/03 A2976 RMK A01 T00420026  RH  089%=      5-min Rain = 0
KPD4 230511Z 15014KT 04/03 A2976 RMK A01 T00420026  RH  089%=      5-min Rain = 0
KPD4 230512Z 15014KT 04/03 A2976 RMK A01 T00420026  RH  089%=      5-min Rain = 0
KPD4 230513Z 14015KT 04/03 A2976 RMK A01 T00420026  RH  089%=      5-min Rain = 0
KPD4 230514Z 15016KT 04/03 A2976 RMK A01 T00420026  RH  089%=      5-min Rain = 0
KPD4 230515Z 15012KT 04/03 A2976 RMK A01 T00420026  RH  089%=      5-min Rain = 0
KPD4 230516Z 15012KT 04/03 A2976 RMK A01 T00420026  RH  089%=      5-min Rain = 0
KPD4 230517Z 15015KT 04/03 A2976 RMK A01 T00420026  RH  089%=      5-min Rain = 0
KPD4 230518Z 15015KT 04/03 A2976 RMK A01 T00420026  RH  089%=      5-min Rain = 0
KPD4 230519Z 15017KT 04/03 A2976 RMK A01 T00420027  RH  089%=      5-min Rain = 0
KPD4 230520Z 14017KT 04/03 A2976 RMK A01 T00420027  RH  090%=      5-min Rain = 0
KPD4 230521Z 15018KT 04/03 A2976 RMK A01 T00420027  RH  090%=      5-min Rain = 0
KPD4 230522Z 15019KT 04/03 A2976 RMK A01 T00420027  RH  090%=      5-min Rain = 0
KPD4 230523Z 15015KT 04/03 A2976 RMK A01 T00420027  RH  090%=      5-min Rain = 0
KPD4 230524Z 15017KT 04/03 A2976 RMK A01 T00420027  RH  090%=      5-min Rain = 0
KPD4 230525Z 15017KT 04/03 A2976 RMK A01 T00420027  RH  090%=      5-min Rain = 0
KPD4 230526Z 15016G21KT 04/03 A2976 RMK A01 T00430028  RH  090%=      5-min Rain = 0
KPD4 230527Z 15020KT 04/03 A2976 RMK A01 T00420027  RH  090%=      5-min Rain = 0
KPD4 230528Z 15019KT 04/03 A2976 RMK A01 T00420028  RH  090%=      5-min Rain = 0
KPD4 230529Z 16020KT 04/03 A2976 RMK A01 T00420028  RH  090%=      5-min Rain = 0
KPD4 230530Z 16018KT 04/03 A2976 RMK A01 T00420028  RH  091%=      5-min Rain = 0
KPD4 230531Z 16019KT 04/03 A2976 RMK A01 T00420028  RH  091%=      5-min Rain = 0
KPD4 230532Z 16017KT 04/03 A2976 RMK A01 T00420028  RH  091%=      5-min Rain = 0
KPD4 230533Z 15015KT 04/03 A2976 RMK A01 T00420028  RH  091%=      5-min Rain = 0
KPD4 230534Z 15012KT 04/03 A2976 RMK A01 T00420028  RH  091%=      5-min Rain = 0
KPD4 230535Z 15014KT 04/03 A2975 RMK A01 T00420028  RH  091%=      5-min Rain = 0
KPD4 230536Z 14017KT 04/03 A2975 RMK A01 T00420028  RH  091%=      5-min Rain = 0
KPD4 230537Z 15015KT 04/03 A2975 RMK A01 T00420028  RH  091%=      5-min Rain = 0
KPD4 230538Z 15016KT 04/03 A2976 RMK A01 T00420028  RH  091%=      5-min Rain = 0
KPD4 230539Z 15017KT 04/03 A2975 RMK A01 T00430029  RH  091%=      5-min Rain = 0
KPD4 230540Z 14014KT 04/03 A2975 RMK A01 T00420029  RH  091%=      5-min Rain = 0
KPD4 230541Z 15014KT 04/03 A2975 RMK A01 T00420029  RH  091%=      5-min Rain = 0
KPD4 230542Z 15012KT 04/03 A2975 RMK A01 T00420029  RH  091%=      5-min Rain = 0
KPD4 230543Z 15010KT 04/03 A2975 RMK A01 T00420029  RH  091%=      5-min Rain = 0
KPD4 230544Z 14014KT 04/03 A2975 RMK A01 T00420029  RH  091%=      5-min Rain = 0
KPD4 230545Z 16013KT 04/03 A2975 RMK A01 T00420029  RH  091%=      5-min Rain = 0
KPD4 230546Z 16015KT 04/03 A2975 RMK A01 T00420029  RH  091%=      5-min Rain = 0
KPD4 230547Z 15013KT 04/03 A2975 RMK A01 T00420029  RH  091%=      5-min Rain = 0
KPD4 230548Z 15012KT 04/03 A2975 RMK A01 T00420029  RH  091%=      5-min Rain = 0
KPD4 230549Z 15013KT 04/03 A2975 RMK A01 T00420029  RH  091%=      5-min Rain = 0
KPD4 230550Z 16014KT 04/03 A2975 RMK A01 T00420029  RH  091%=      5-min Rain = 0
KPD4 230551Z 16013KT 04/03 A2975 RMK A01 T00420029  RH  091%=      5-min Rain = 0
KPD4 230552Z 15012KT 04/03 A2975 RMK A01 T00420029  RH  091%=      5-min Rain = 0
KPD4 230553Z 15014KT 04/03 A2975 RMK A01 T00420028  RH  091%=      5-min Rain = 0
KPD4 230554Z 16014KT 04/03 A2975 RMK A01 T00420028  RH  091%=      5-min Rain = 0
KPD4 230555Z 15016KT 04/03 A2975 RMK A01 T00420028  RH  090%=      5-min Rain = 0
KPD4 230556Z 15015KT 04/03 A2974 RMK A01 T00420028  RH  090%=      5-min Rain = 0
KPD4 230557Z 14012KT 04/03 A2974 RMK A01 T00420028  RH  090%=      5-min Rain = 0
KPD4 230558Z 14011KT 04/03 A2974 RMK A01 T00430028  RH  090%=      5-min Rain = 0
KPD4 230559Z 15015KT 04/03 A2974 RMK A01 T00430028  RH  090%=      5-min Rain = 0

Page generated in 0.07 seconds.